Time;durP1;ratioP1;P1;durP2;ratioP2;P2;SDS_P1;SDS_P2;PMS_P1;PMS_P2;Temp;Humidity;BMP_temperature;BMP_pressure;BME280_temperature;BME280_humidity;BME280_pressure;Samples;Min_cycle;Max_cycle;Signal;HPM_P1;HPM_P2
2023/08/03 00:01:06;;;;;;;4.03;1.30;;;;;;;17.68;81.96;99160.34;7393169;19;20018;-60
2023/08/03 00:03:33;;;;;;;5.10;1.42;;;;;;;17.66;82.22;99154.34;7390896;19;20559;-61
2023/08/03 00:06:01;;;;;;;5.30;1.33;;;;;;;17.69;82.46;99150.44;7390924;19;20114;-60
2023/08/03 00:08:28;;;;;;;7.00;1.23;;;;;;;17.63;82.45;99153.91;7393544;19;20029;-59
2023/08/03 00:10:56;;;;;;;5.10;1.30;;;;;;;17.63;82.38;99152.09;7393321;19;20369;-60
2023/08/03 00:13:23;;;;;;;4.18;1.27;;;;;;;17.65;82.44;99152.69;7392163;19;20111;-60
2023/08/03 00:15:50;;;;;;;6.20;1.50;;;;;;;17.64;82.11;99153.72;7392001;19;20018;-61
2023/08/03 00:18:18;;;;;;;4.47;1.27;;;;;;;17.66;82.37;99140.94;7393238;19;20060;-59
2023/08/03 00:20:47;;;;;;;5.05;1.13;;;;;;;17.58;82.42;99143.81;7390524;19;20022;-60
2023/08/03 00:23:15;;;;;;;4.55;1.05;;;;;;;17.46;83.00;99138.19;7391972;19;20030;-59
2023/08/03 00:25:42;;;;;;;7.82;1.20;;;;;;;17.51;82.40;99142.94;7392504;19;20026;-62
2023/08/03 00:28:09;;;;;;;5.15;1.65;;;;;;;17.39;82.81;99141.84;7392698;19;20086;-59
2023/08/03 00:30:37;;;;;;;4.43;1.27;;;;;;;17.43;82.60;99145.78;7390966;19;20040;-60
2023/08/03 00:33:04;;;;;;;4.75;1.40;;;;;;;17.49;82.31;99139.66;7391625;19;20020;-60
2023/08/03 00:35:32;;;;;;;6.47;1.55;;;;;;;17.46;82.88;99140.03;7392000;19;20018;-58
2023/08/03 00:37:59;;;;;;;6.75;1.38;;;;;;;17.43;82.79;99140.41;7391986;19;20022;-58
2023/08/03 00:40:27;;;;;;;6.13;1.40;;;;;;;17.43;82.90;99130.53;7396420;19;20019;-59
2023/08/03 00:42:55;;;;;;;5.45;1.33;;;;;;;17.54;82.59;99127.31;7389863;19;20022;-58
2023/08/03 00:45:22;;;;;;;8.43;1.60;;;;;;;17.57;82.76;99118.06;7391616;19;20485;-59
2023/08/03 00:47:50;;;;;;;4.60;1.40;;;;;;;17.57;82.45;99123.41;7392407;19;20022;-58
2023/08/03 00:50:18;;;;;;;6.82;1.42;;;;;;;17.51;82.50;99119.69;7389286;19;20024;-58
2023/08/03 00:52:45;;;;;;;5.93;1.60;;;;;;;17.51;82.59;99118.84;7389796;19;20389;-58
2023/08/03 00:55:12;;;;;;;5.78;1.33;;;;;;;17.53;82.50;99111.47;7391489;19;20018;-58
2023/08/03 00:57:39;;;;;;;7.82;1.50;;;;;;;17.48;82.62;99112.06;7390482;19;20011;-58
2023/08/03 01:00:07;;;;;;;4.18;1.35;;;;;;;17.49;82.30;99121.72;7391833;19;20014;-57
2023/08/03 01:02:35;;;;;;;7.38;1.58;;;;;;;17.41;82.63;99116.53;7390902;19;20018;-58
2023/08/03 01:05:02;;;;;;;7.07;1.60;;;;;;;17.33;83.14;99106.00;7391070;19;20084;-58
2023/08/03 01:07:30;;;;;;;5.80;1.40;;;;;;;17.36;82.79;99107.44;7391738;19;20031;-58
2023/08/03 01:09:57;;;;;;;9.45;1.70;;;;;;;17.36;82.74;99107.44;7390632;19;20018;-59
2023/08/03 01:12:25;;;;;;;4.95;1.33;;;;;;;17.31;82.90;99105.38;7391175;19;20514;-59
2023/08/03 01:14:52;;;;;;;4.53;1.45;;;;;;;17.36;82.99;99104.75;7390731;19;20042;-59
2023/08/03 01:17:20;;;;;;;8.85;1.38;;;;;;;17.44;82.55;99101.97;7391745;19;20015;-59
2023/08/03 01:19:48;;;;;;;5.68;1.45;;;;;;;17.41;82.25;99092.47;7391265;19;20356;-59
2023/08/03 01:22:16;;;;;;;5.40;1.30;;;;;;;17.36;82.97;99088.72;7390989;19;20028;-59
2023/08/03 01:24:43;;;;;;;5.88;1.35;;;;;;;17.43;82.83;99089.56;7390271;19;20088;-59
2023/08/03 01:27:11;;;;;;;4.28;1.52;;;;;;;17.48;82.37;99076.44;7391176;19;20043;-59
2023/08/03 01:29:38;;;;;;;6.40;1.30;;;;;;;17.41;82.66;99071.06;7390362;19;20011;-59
2023/08/03 01:32:06;;;;;;;7.15;1.65;;;;;;;17.38;82.56;99075.97;7389666;19;20019;-59
2023/08/03 01:34:33;;;;;;;8.65;1.65;;;;;;;17.42;82.43;99077.22;7390438;19;20025;-60
2023/08/03 01:37:01;;;;;;;4.47;1.40;;;;;;;17.51;82.11;99076.03;7389335;19;20026;-59
2023/08/03 01:39:28;;;;;;;6.97;1.63;;;;;;;17.52;81.92;99067.81;7392830;19;20014;-60
2023/08/03 01:41:56;;;;;;;6.00;1.50;;;;;;;17.53;82.10;99069.44;7390135;19;20021;-60
2023/08/03 01:44:26;;;;;;;6.25;1.38;;;;;;;17.50;81.99;99064.50;7388493;19;20015;-61
2023/08/03 01:46:55;;;;;;;3.60;1.25;;;;;;;17.45;82.53;99056.25;7389998;19;20010;-61
2023/08/03 01:49:25;;;;;;;6.03;1.17;;;;;;;17.48;82.44;99057.72;7389960;19;20019;-60
2023/08/03 01:51:53;;;;;;;4.53;1.50;;;;;;;17.52;82.14;99058.97;7388916;19;20024;-59
2023/08/03 01:54:20;;;;;;;7.70;1.40;;;;;;;17.51;82.44;99052.78;7388494;19;20026;-59
2023/08/03 01:56:47;;;;;;;7.28;1.17;;;;;;;17.57;81.95;99050.31;7389837;19;20018;-59
2023/08/03 01:59:15;;;;;;;6.30;1.42;;;;;;;17.57;82.03;99039.63;7390150;19;20053;-58
2023/08/03 02:01:42;;;;;;;8.20;1.70;;;;;;;17.61;81.59;99039.00;7388794;19;20022;-58
2023/08/03 02:04:10;;;;;;;6.32;1.45;;;;;;;17.58;81.97;99034.03;7387742;19;20014;-58
2023/08/03 02:06:38;;;;;;;5.35;1.40;;;;;;;17.59;81.90;99027.69;7389985;19;20018;-59
2023/08/03 02:09:05;;;;;;;7.03;1.42;;;;;;;17.60;81.88;99032.00;7387870;19;20102;-62
2023/08/03 02:11:34;;;;;;;7.15;1.23;;;;;;;17.54;82.44;99040.81;7389605;19;20029;-60
2023/08/03 02:14:01;;;;;;;3.85;1.40;;;;;;;17.59;81.86;99029.50;7387634;19;20023;-61
2023/08/03 02:16:29;;;;;;;5.55;1.42;;;;;;;17.49;82.25;99027.22;7389472;19;20018;-59
2023/08/03 02:18:57;;;;;;;5.53;1.40;;;;;;;17.56;82.05;99025.41;7390152;19;20015;-59
2023/08/03 02:21:24;;;;;;;6.60;1.23;;;;;;;17.59;81.73;99024.16;7389685;19;20014;-62
2023/08/03 02:23:51;;;;;;;7.03;1.33;;;;;;;17.58;82.12;99026.00;7386570;19;20022;-59
2023/08/03 02:26:19;;;;;;;6.80;1.80;;;;;;;17.53;81.78;99023.94;7387550;19;20021;-59
2023/08/03 02:28:46;;;;;;;6.15;1.13;;;;;;;17.53;82.21;99026.63;7387733;19;20459;-59
2023/08/03 02:31:13;;;;;;;5.72;1.40;;;;;;;17.56;82.11;99021.91;7387187;19;20022;-59
2023/08/03 02:33:41;;;;;;;4.65;1.50;;;;;;;17.52;82.43;99026.84;7388029;19;20123;-59
2023/08/03 02:36:09;;;;;;;5.35;1.40;;;;;;;17.58;82.34;99015.31;7386980;19;20014;-59
2023/08/03 02:38:36;;;;;;;5.78;1.60;;;;;;;17.52;83.01;99019.63;7387874;19;20019;-59
2023/08/03 02:41:03;;;;;;;7.68;1.45;;;;;;;17.45;83.16;99005.41;7389055;19;20027;-59
2023/08/03 02:43:31;;;;;;;3.47;1.15;;;;;;;17.38;83.59;99006.41;7389471;19;20492;-59
2023/08/03 02:45:58;;;;;;;4.82;1.50;;;;;;;17.43;83.13;99006.63;7395858;19;20022;-59
2023/08/03 02:48:25;;;;;;;6.53;1.42;;;;;;;17.39;83.72;99006.19;7396743;19;20022;-59
2023/08/03 02:50:53;;;;;;;6.13;1.13;;;;;;;17.42;83.72;99007.66;7394116;19;20022;-59
2023/08/03 02:53:20;;;;;;;4.35;1.20;;;;;;;17.44;83.66;99000.25;7394643;19;20364;-59
2023/08/03 02:55:50;;;;;;;3.85;1.08;;;;;;;17.49;83.68;98992.44;7393302;19;20018;-59
2023/08/03 02:58:17;;;;;;;4.30;1.20;;;;;;;17.55;83.54;98986.25;7395759;19;20022;-56
2023/08/03 03:00:45;;;;;;;6.28;1.20;;;;;;;17.57;83.33;98992.25;7394529;19;20022;-57
2023/08/03 03:03:12;;;;;;;4.60;1.25;;;;;;;17.56;83.44;98985.25;7393611;19;20015;-58
2023/08/03 03:05:42;;;;;;;9.27;1.65;;;;;;;17.52;83.49;98989.38;7394907;19;20019;-57
2023/08/03 03:08:10;;;;;;;4.55;1.30;;;;;;;17.51;83.47;98993.91;7395552;19;20019;-57
2023/08/03 03:10:37;;;;;;;4.22;1.30;;;;;;;17.46;83.58;98985.63;7394033;19;20014;-57
2023/08/03 03:13:04;;;;;;;5.00;1.55;;;;;;;17.42;83.80;98986.25;7394157;19;20021;-58
2023/08/03 03:15:32;;;;;;;6.88;1.50;;;;;;;17.39;84.06;98975.94;7394761;19;20026;-60
2023/08/03 03:17:59;;;;;;;7.03;1.42;;;;;;;17.40;83.94;98982.91;7395638;19;20018;-59
2023/08/03 03:20:27;;;;;;;3.95;1.20;;;;;;;17.40;84.04;98988.28;7393900;19;20018;-59
2023/08/03 03:22:55;;;;;;;6.38;1.45;;;;;;;17.38;83.89;98996.50;7394856;19;20078;-59
2023/08/03 03:25:22;;;;;;;5.55;1.23;;;;;;;17.46;83.62;98976.78;7394222;19;20022;-60
2023/08/03 03:27:49;;;;;;;4.68;1.33;;;;;;;17.42;83.87;98981.72;7394735;19;20043;-60
2023/08/03 03:30:17;;;;;;;4.13;1.20;;;;;;;17.46;83.75;98985.63;7393628;19;20021;-60
2023/08/03 03:32:45;;;;;;;3.63;1.00;;;;;;;17.27;84.23;98987.19;7390288;19;20023;-61
2023/08/03 03:35:13;;;;;;;5.95;1.40;;;;;;;17.31;84.27;98990.31;7392307;19;20014;-58
2023/08/03 03:37:40;;;;;;;5.03;1.10;;;;;;;17.37;83.97;99002.06;7394613;19;20014;-59
2023/08/03 03:40:08;;;;;;;5.32;1.20;;;;;;;17.26;84.37;98995.44;7396860;19;20010;-57
2023/08/03 03:42:35;;;;;;;4.07;1.05;;;;;;;17.41;83.65;98995.31;7392727;19;20023;-58
2023/08/03 03:45:03;;;;;;;6.13;1.15;;;;;;;17.39;83.71;98992.81;7393338;19;20489;-58
2023/08/03 03:47:30;;;;;;;3.13;0.88;;;;;;;17.41;83.59;98992.63;7393047;19;20054;-59
2023/08/03 03:49:58;;;;;;;6.10;1.02;;;;;;;17.45;83.56;98996.53;7393966;19;20011;-60
2023/08/03 03:52:25;;;;;;;3.28;1.00;;;;;;;17.40;83.97;98988.28;7393734;19;20026;-59
2023/08/03 03:54:52;;;;;;;5.25;1.10;;;;;;;17.41;83.66;98997.97;7392825;19;20014;-58
2023/08/03 03:57:20;;;;;;;8.10;1.27;;;;;;;17.35;84.07;98996.09;7393222;19;20018;-58
2023/08/03 03:59:47;;;;;;;4.40;1.17;;;;;;;17.38;84.07;99001.88;7393661;19;20030;-58
2023/08/03 04:02:14;;;;;;;2.67;1.05;;;;;;;17.27;84.42;99000.59;7391938;19;20021;-59
2023/08/03 04:04:42;;;;;;;4.60;1.00;;;;;;;17.43;84.11;99010.09;7390836;19;20468;-59
2023/08/03 04:07:09;;;;;;;3.03;1.10;;;;;;;17.48;83.86;99009.53;7391202;19;20520;-59
2023/08/03 04:09:36;;;;;;;2.90;0.90;;;;;;;17.48;84.13;99015.72;7393194;19;20023;-59
2023/08/03 04:12:04;;;;;;;3.22;1.00;;;;;;;17.49;83.91;99011.19;7389600;19;20022;-58
2023/08/03 04:14:31;;;;;;;4.03;0.88;;;;;;;17.47;84.07;99019.38;7391087;19;20018;-59
2023/08/03 04:16:58;;;;;;;3.17;1.00;;;;;;;17.44;84.24;99021.66;7392972;19;20018;-58
2023/08/03 04:19:26;;;;;;;2.72;0.82;;;;;;;17.47;84.45;99024.75;7393138;19;20022;-59
2023/08/03 04:21:53;;;;;;;2.75;1.00;;;;;;;17.52;84.35;99033.00;7393436;19;20025;-59
2023/08/03 04:24:20;;;;;;;3.58;1.00;;;;;;;17.52;83.99;99024.97;7389098;19;20349;-59
2023/08/03 04:26:47;;;;;;;6.07;1.27;;;;;;;17.49;83.90;99024.56;7391849;19;20019;-59
2023/08/03 04:29:15;;;;;;;2.58;1.02;;;;;;;17.51;84.03;99028.69;7392407;19;20544;-59
2023/08/03 04:31:42;;;;;;;2.67;1.00;;;;;;;17.49;84.05;99035.25;7391294;19;20337;-59
2023/08/03 04:34:10;;;;;;;3.92;1.00;;;;;;;17.41;84.89;99038.13;7390741;19;20022;-59
2023/08/03 04:36:37;;;;;;;3.47;1.05;;;;;;;17.41;84.80;99036.25;7392316;19;20717;-58
2023/08/03 04:39:05;;;;;;;3.90;1.38;;;;;;;17.45;84.70;99042.03;7393508;19;20368;-58
2023/08/03 04:41:33;;;;;;;3.25;1.23;;;;;;;17.45;84.76;99045.53;7392731;19;20366;-56
2023/08/03 04:44:00;;;;;;;3.55;1.10;;;;;;;17.51;84.51;99042.06;7390965;19;20006;-57
2023/08/03 04:46:28;;;;;;;3.88;1.30;;;;;;;17.57;84.14;99050.31;7391597;19;20018;-58
2023/08/03 04:48:55;;;;;;;2.75;1.13;;;;;;;17.53;84.61;99047.22;7392481;19;20524;-58
2023/08/03 04:51:22;;;;;;;1.92;1.13;;;;;;;17.55;84.47;99055.84;7390872;19;20014;-58
2023/08/03 04:53:50;;;;;;;3.88;1.27;;;;;;;17.50;84.86;99069.03;7391097;19;20044;-59
2023/08/03 04:56:17;;;;;;;2.92;1.10;;;;;;;17.50;84.62;99059.13;7389538;19;20022;-59
2023/08/03 04:58:44;;;;;;;3.97;1.40;;;;;;;17.50;84.86;99063.66;7391872;19;20055;-59
2023/08/03 05:01:12;;;;;;;2.50;1.20;;;;;;;17.56;84.38;99054.03;7391278;19;20015;-59
2023/08/03 05:03:39;;;;;;;1.75;1.00;;;;;;;17.63;84.27;99061.06;7391054;19;20035;-59
2023/08/03 05:06:07;;;;;;;3.22;1.27;;;;;;;17.66;83.96;99057.97;7389918;19;20497;-58
2023/08/03 05:08:34;;;;;;;3.72;1.67;;;;;;;17.65;83.83;99047.47;7391973;19;20035;-59
2023/08/03 05:11:01;;;;;;;5.38;2.17;;;;;;;17.75;83.59;99062.16;7390104;19;20021;-59
2023/08/03 05:13:29;;;;;;;5.13;1.80;;;;;;;17.82;83.60;99064.88;7389517;19;20386;-60
2023/08/03 05:15:58;;;;;;;2.95;1.60;;;;;;;17.84;83.80;99062.78;7390622;19;20126;-59
2023/08/03 05:18:25;;;;;;;2.25;1.50;;;;;;;17.92;83.32;99061.78;7391564;19;20019;-59
2023/08/03 05:20:52;;;;;;;3.50;1.15;;;;;;;18.05;83.06;99077.06;7391391;19;20027;-59
2023/08/03 05:23:20;;;;;;;2.70;1.27;;;;;;;18.05;82.87;99063.66;7390528;19;20014;-59
2023/08/03 05:25:53;;;;;;;4.22;1.40;;;;;;;18.04;83.64;99073.56;7389092;19;20529;-58
2023/08/03 05:28:21;;;;;;;4.80;1.95;;;;;;;17.89;83.76;99079.06;7391019;19;20050;-59
2023/08/03 05:30:48;;;;;;;3.90;1.45;;;;;;;17.84;84.33;99078.03;7390654;19;20508;-59
2023/08/03 05:33:15;;;;;;;5.22;1.58;;;;;;;17.86;84.17;99081.31;7389821;19;20047;-59
2023/08/03 05:35:46;;;;;;;3.05;1.60;;;;;;;17.80;84.70;99084.81;7390528;19;20022;-59
2023/08/03 05:38:16;;;;;;;2.92;1.50;;;;;;;17.74;84.89;99087.25;7391084;19;20020;-59
2023/08/03 05:40:43;;;;;;;3.33;1.40;;;;;;;17.58;85.51;99081.41;7394653;19;20026;-59
2023/08/03 05:43:13;;;;;;;2.28;1.00;;;;;;;17.61;85.88;99095.22;7390359;19;20026;-60
2023/08/03 05:45:43;;;;;;;2.88;1.30;;;;;;;17.66;85.06;99082.06;7389668;19;20021;-59
2023/08/03 05:48:18;;;;;;;3.03;1.17;;;;;;;17.67;85.17;99085.59;7390578;19;20096;-60
2023/08/03 05:50:51;;;;;;;2.05;1.10;;;;;;;17.65;85.56;99088.44;7390143;19;20029;-59
2023/08/03 05:53:18;;;;;;;3.75;1.48;;;;;;;17.67;85.32;99090.94;7389880;19;20085;-58
2023/08/03 05:55:46;;;;;;;3.30;1.20;;;;;;;17.71;85.23;99097.53;7388837;19;20043;-58
2023/08/03 05:58:28;;;;;;;3.35;1.40;;;;;;;17.67;85.19;99094.44;7390025;19;20512;-60
2023/08/03 06:00:55;;;;;;;4.43;1.50;;;;;;;17.68;85.17;99088.06;7388688;19;20074;-60
2023/08/03 06:03:22;;;;;;;3.83;1.50;;;;;;;17.63;85.48;99106.56;7387892;19;20018;-60
2023/08/03 06:05:50;;;;;;;4.30;1.80;;;;;;;17.68;85.44;99101.44;7389111;19;20018;-61
2023/08/03 06:08:20;;;;;;;3.60;1.60;;;;;;;17.72;85.24;99107.22;7390499;19;20026;-64
2023/08/03 06:10:53;;;;;;;4.90;1.73;;;;;;;17.72;84.97;99115.25;7387358;19;20019;-60
2023/08/03 06:13:26;;;;;;;3.42;1.77;;;;;;;17.67;85.09;99123.06;7389098;19;20026;-60
2023/08/03 06:15:53;;;;;;;;;;;;;;;17.51;85.54;99124.19;7390928;19;20030;-60
2023/08/03 06:18:21;;;;;;;4.35;1.60;;;;;;;17.50;85.94;99128.72;7391354;19;19922;-60
2023/08/03 06:20:51;;;;;;;4.60;1.45;;;;;;;17.61;85.28;99134.56;7397021;19;20018;-59
2023/08/03 06:23:20;;;;;;;4.50;1.58;;;;;;;17.67;85.12;99141.81;7396223;19;20025;-59
2023/08/03 06:25:50;;;;;;;4.82;1.60;;;;;;;17.67;85.19;99158.69;7396703;19;20506;-62
2023/08/03 06:28:19;;;;;;;3.13;1.60;;;;;;;17.70;85.32;99155.59;7397098;19;20090;-60
2023/08/03 06:30:48;;;;;;;3.92;1.40;;;;;;;17.70;85.33;99165.47;7397040;19;20030;-60
2023/08/03 06:33:18;;;;;;;3.65;1.40;;;;;;;17.71;84.95;99183.22;7393159;19;20019;-57
2023/08/03 06:35:46;;;;;;;4.15;1.60;;;;;;;17.69;85.40;99177.22;7396206;19;20014;-57
2023/08/03 06:38:16;;;;;;;5.10;1.90;;;;;;;17.70;85.39;99182.38;7395812;19;20028;-58
2023/08/03 06:40:46;;;;;;;5.28;1.75;;;;;;;17.73;85.62;99191.88;7401236;19;20037;-58
2023/08/03 06:43:14;;;;;;;7.20;2.00;;;;;;;17.68;85.53;99191.63;7395503;19;20138;-58
2023/08/03 06:45:42;;;;;;;6.13;1.90;;;;;;;17.71;85.39;99196.59;7395964;19;20026;-58
2023/08/03 06:48:10;;;;;;;4.50;1.92;;;;;;;17.64;85.85;99196.56;7395762;19;20014;-59
2023/08/03 06:50:38;;;;;;;6.35;2.00;;;;;;;17.69;85.34;99196.78;7395521;19;20025;-59
2023/08/03 06:53:07;;;;;;;6.40;1.90;;;;;;;17.85;84.54;99200.19;7395264;19;20086;-58
2023/08/03 06:55:34;;;;;;;5.38;1.92;;;;;;;17.95;84.73;99209.53;7393885;19;20453;-59
2023/08/03 06:58:01;;;;;;;6.45;2.00;;;;;;;17.99;84.14;99207.28;7395319;19;20020;-59
2023/08/03 07:00:29;;;;;;;4.10;1.80;;;;;;;18.07;83.53;99214.31;7395079;19;20092;-60
2023/08/03 07:02:57;;;;;;;5.20;2.15;;;;;;;18.17;83.70;99220.13;7394620;19;20026;-59
2023/08/03 07:05:25;;;;;;;5.65;1.90;;;;;;;18.20;83.59;99215.22;7394742;19;20074;-58
2023/08/03 07:07:52;;;;;;;5.35;1.85;;;;;;;18.26;82.77;99224.28;7394921;19;20023;-58
2023/08/03 07:10:20;;;;;;;6.32;2.22;;;;;;;18.38;82.48;99228.03;7395287;19;20018;-58
2023/08/03 07:12:47;;;;;;;8.23;2.03;;;;;;;18.56;82.32;99230.16;7393363;19;20053;-59
2023/08/03 07:15:15;;;;;;;4.85;2.10;;;;;;;18.56;82.42;99240.06;7393122;19;20019;-58
2023/08/03 07:17:43;;;;;;;6.75;1.95;;;;;;;18.62;82.35;99240.09;7394670;19;20018;-58
2023/08/03 07:20:11;;;;;;;6.97;2.40;;;;;;;18.65;82.38;99241.50;7395711;19;20410;-58
2023/08/03 07:22:38;;;;;;;6.93;2.00;;;;;;;18.62;81.96;99231.19;7394502;19;20011;-59
2023/08/03 07:25:06;;;;;;;6.15;2.10;;;;;;;18.52;82.27;99234.28;7394428;19;20019;-58
2023/08/03 07:27:33;;;;;;;5.95;1.90;;;;;;;18.52;82.36;99237.78;7394333;19;20055;-58
2023/08/03 07:30:01;;;;;;;5.28;2.10;;;;;;;18.64;82.47;99242.56;7393120;19;20014;-59
2023/08/03 07:32:28;;;;;;;6.03;2.03;;;;;;;18.61;82.25;99251.81;7392764;19;20026;-60
2023/08/03 07:34:56;;;;;;;6.32;2.53;;;;;;;18.59;82.19;99253.06;7392726;19;20035;-60
2023/08/03 07:37:23;;;;;;;6.03;2.35;;;;;;;18.70;81.97;99249.81;7393546;19;20025;-60
2023/08/03 07:39:50;;;;;;;8.05;2.53;;;;;;;18.77;81.46;99253.31;7395549;19;20094;-60
2023/08/03 07:42:18;;;;;;;8.82;2.90;;;;;;;18.76;81.56;99262.41;7391474;19;20081;-60
2023/08/03 07:44:45;;;;;;;5.07;2.53;;;;;;;18.80;80.95;99268.19;7390245;19;20024;-60
2023/08/03 07:47:15;;;;;;;8.75;2.40;;;;;;;18.90;81.04;99268.66;7394645;19;20022;-59
2023/08/03 07:49:43;;;;;;;6.93;2.50;;;;;;;19.08;80.69;99270.72;7393119;19;20100;-59
2023/08/03 07:52:10;;;;;;;5.60;2.50;;;;;;;19.16;80.60;99274.03;7392648;19;20014;-60
2023/08/03 07:54:38;;;;;;;9.88;2.65;;;;;;;19.30;79.95;99274.88;7391917;19;20025;-59
2023/08/03 07:57:05;;;;;;;6.40;2.22;;;;;;;19.28;79.30;99276.13;7393613;19;20014;-59
2023/08/03 07:59:33;;;;;;;5.38;1.98;;;;;;;19.26;79.13;99268.25;7393626;19;20018;-58
2023/08/03 08:02:01;;;;;;;7.18;2.20;;;;;;;19.15;79.20;99272.38;7392959;19;20022;-59
2023/08/03 08:04:28;;;;;;;6.10;2.08;;;;;;;19.08;79.71;99282.31;7391723;19;20018;-59
2023/08/03 08:06:56;;;;;;;4.93;2.00;;;;;;;19.03;78.99;99273.19;7392498;19;20018;-60
2023/08/03 08:09:24;;;;;;;4.97;2.33;;;;;;;18.94;78.91;99284.13;7393259;19;20532;-59
2023/08/03 08:11:51;;;;;;;7.53;1.60;;;;;;;19.11;78.23;99292.59;7392666;19;20034;-59
2023/08/03 08:14:19;;;;;;;3.35;1.67;;;;;;;19.22;78.20;99286.63;7390020;19;20098;-59
2023/08/03 08:16:46;;;;;;;4.28;1.75;;;;;;;19.16;78.40;99284.78;7391253;19;20022;-59
2023/08/03 08:19:25;;;;;;;5.53;1.90;;;;;;;19.02;78.70;99290.34;7393067;19;20022;-59
2023/08/03 08:21:52;;;;;;;4.65;1.55;;;;;;;18.91;78.81;99279.16;7392752;19;20088;-60
2023/08/03 08:24:39;;;;;;;4.82;1.70;;;;;;;18.82;79.95;99290.28;7389655;19;20353;-60
2023/08/03 08:27:07;;;;;;;5.20;1.77;;;;;;;18.87;79.91;99298.56;7393117;19;20022;-60
2023/08/03 08:29:34;;;;;;;4.32;1.73;;;;;;;18.88;79.77;99302.88;7392642;19;20043;-59
2023/08/03 08:32:01;;;;;;;4.45;1.70;;;;;;;18.93;79.94;99297.75;7391372;19;20110;-59
2023/08/03 08:34:30;;;;;;;7.90;2.13;;;;;;;19.13;79.54;99295.09;7390581;19;20484;-59
2023/08/03 08:36:58;;;;;;;4.47;1.80;;;;;;;19.10;79.98;99298.19;7390991;19;20022;-60
2023/08/03 08:39:27;;;;;;;4.95;1.70;;;;;;;19.08;80.48;99301.09;7392479;19;20022;-59
2023/08/03 08:41:55;;;;;;;6.60;1.83;;;;;;;19.15;80.28;99320.69;7388782;19;20023;-60
2023/08/03 08:44:23;;;;;;;5.90;1.92;;;;;;;19.15;79.86;99303.75;7390980;19;20020;-60
2023/08/03 08:46:50;;;;;;;4.97;1.90;;;;;;;18.93;80.45;99303.94;7391318;19;20021;-60
2023/08/03 08:49:18;;;;;;;5.25;1.83;;;;;;;18.81;81.10;99302.03;7392625;19;20011;-60
2023/08/03 08:51:49;;;;;;;3.42;1.80;;;;;;;18.74;81.48;99313.59;7391086;19;20023;-60
2023/08/03 08:54:20;;;;;;;5.93;2.03;;;;;;;18.75;81.59;99328.66;7390222;19;20021;-60
2023/08/03 08:56:48;;;;;;;6.45;2.10;;;;;;;18.90;81.68;99333.03;7390897;19;20025;-59
2023/08/03 08:59:18;;;;;;;6.30;1.98;;;;;;;18.96;81.42;99329.53;7390228;19;20105;-60
2023/08/03 09:01:53;;;;;;;4.20;1.80;;;;;;;18.86;81.69;99337.97;7391607;19;20480;-60
2023/08/03 09:04:32;;;;;;;5.05;1.52;;;;;;;18.73;81.20;99349.50;7390314;19;20510;-60
2023/08/03 09:07:02;;;;;;;2.75;1.20;;;;;;;18.75;81.36;99355.47;7391283;19;20048;-59
2023/08/03 09:09:36;;;;;;;3.20;1.08;;;;;;;18.83;80.77;99370.56;7390917;19;20484;-59
2023/08/03 09:12:04;;;;;;;5.45;1.20;;;;;;;18.88;80.58;99378.81;7393180;19;20014;-60
2023/08/03 09:14:50;;;;;;;2.95;1.05;;;;;;;18.96;80.32;99386.72;7390618;19;20137;-60
2023/08/03 09:17:20;;;;;;;1.75;1.00;;;;;;;19.20;79.36;99387.19;7393810;19;20035;-60
2023/08/03 09:19:47;;;;;;;2.88;0.98;;;;;;;19.49;78.40;99384.13;7388784;19;20837;-60
2023/08/03 09:22:20;;;;;;;2.25;0.95;;;;;;;19.61;78.52;99400.50;7393372;19;20018;-60
2023/08/03 09:25:06;;;;;;;1.95;0.82;;;;;;;19.89;77.29;99403.00;7388238;19;20019;-60
2023/08/03 09:27:36;;;;;;;1.65;0.70;;;;;;;19.93;77.56;99411.47;7391311;19;20022;-59
2023/08/03 09:30:07;;;;;;;2.28;1.02;;;;;;;19.71;77.59;99400.91;7391284;19;20099;-59
2023/08/03 09:32:37;;;;;;;0.88;0.70;;;;;;;19.74;77.45;99396.19;7389910;19;20015;-60
2023/08/03 09:35:19;;;;;;;2.13;1.05;;;;;;;19.93;77.19;99414.16;7389788;19;20049;-60
2023/08/03 09:37:49;;;;;;;2.97;1.10;;;;;;;20.06;76.90;99418.69;7390855;19;20015;-60
2023/08/03 09:40:19;;;;;;;3.78;1.30;;;;;;;20.09;76.97;99424.50;7390294;19;20023;-60
2023/08/03 09:42:48;;;;;;;4.18;0.95;;;;;;;20.19;76.51;99434.84;7388447;19;20021;-60
2023/08/03 09:45:17;;;;;;;1.88;1.00;;;;;;;20.15;76.11;99436.28;7390105;19;20485;-60
2023/08/03 09:47:49;;;;;;;1.48;0.77;;;;;;;20.10;75.81;99431.50;7391815;19;20512;-60
2023/08/03 09:50:17;;;;;;;3.17;0.90;;;;;;;19.91;76.42;99438.53;7388511;19;20053;-60
2023/08/03 09:52:49;;;;;;;2.72;0.80;;;;;;;20.05;75.17;99452.00;7391667;19;20097;-59
2023/08/03 09:55:27;;;;;;;1.67;0.60;;;;;;;20.00;75.59;99449.94;7397149;19;20093;-60
2023/08/03 09:58:02;;;;;;;1.42;0.60;;;;;;;19.96;75.17;99456.75;7397345;19;20360;-60
2023/08/03 10:00:30;;;;;;;0.80;0.60;;;;;;;19.96;74.57;99454.06;7397739;19;20549;-59
2023/08/03 10:03:06;;;;;;;1.20;0.70;;;;;;;20.10;74.10;99454.88;7397085;19;20019;-59
2023/08/03 10:05:40;;;;;;;1.48;0.60;;;;;;;20.14;73.43;99454.25;7396681;19;20018;-59
2023/08/03 10:08:36;;;;;;;2.38;0.52;;;;;;;20.09;73.53;99453.22;7397565;19;20014;-60
2023/08/03 10:11:06;;;;;;;2.42;0.70;;;;;;;20.09;74.70;99462.13;7396836;19;20018;-58
2023/08/03 10:13:34;;;;;;;2.30;0.60;;;;;;;20.18;74.44;99460.91;7395066;19;20015;-59
2023/08/03 10:16:04;;;;;;;1.83;0.50;;;;;;;20.26;74.01;99461.69;7397065;19;20026;-59
2023/08/03 10:18:35;;;;;;;0.75;0.40;;;;;;;20.46;73.56;99467.91;7395654;19;20032;-59
2023/08/03 10:21:06;;;;;;;1.90;0.60;;;;;;;20.56;71.43;99465.63;7396898;19;20014;-59
2023/08/03 10:23:38;;;;;;;2.50;0.60;;;;;;;20.71;71.61;99476.16;7398185;19;20015;-59
2023/08/03 10:26:09;;;;;;;1.98;0.40;;;;;;;20.85;71.20;99477.78;7395780;19;20018;-59
2023/08/03 10:28:39;;;;;;;1.10;0.60;;;;;;;20.77;69.73;99485.25;7395453;19;20085;-59
2023/08/03 10:31:12;;;;;;;1.05;0.50;;;;;;;20.73;70.11;99490.22;7396807;19;20018;-59
2023/08/03 10:33:46;;;;;;;1.02;0.50;;;;;;;20.81;70.38;99487.31;7393913;19;20011;-59
2023/08/03 10:38:59;;;;;;;1.05;0.30;;;;;;;21.13;69.15;99506.25;7396524;19;20031;-59
2023/08/03 10:41:28;;;;;;;0.63;0.30;;;;;;;21.16;68.32;99506.66;7397011;19;20082;-59
2023/08/03 10:44:14;;;;;;;0.98;0.50;;;;;;;21.04;68.47;99519.13;7392109;19;20018;-60
2023/08/03 10:46:49;;;;;;;1.13;0.43;;;;;;;20.60;70.86;99528.72;7395962;19;20043;-59
2023/08/03 10:49:17;;;;;;;1.10;0.40;;;;;;;20.40;72.79;99542.16;7394179;19;20022;-59
2023/08/03 10:51:53;;;;;;;2.28;0.80;;;;;;;20.36;73.77;99532.84;7396108;19;20026;-59
2023/08/03 10:54:27;;;;;;;1.65;0.82;;;;;;;20.33;74.33;99543.19;7392846;19;20018;-59
2023/08/03 10:57:02;;;;;;;0.95;0.40;;;;;;;20.54;73.81;99547.59;7394505;19;20014;-60
2023/08/03 10:59:37;;;;;;;2.50;0.50;;;;;;;20.53;74.79;99551.28;7395240;19;20026;-60
2023/08/03 11:02:19;;;;;;;0.70;0.60;;;;;;;20.38;75.01;99548.78;7394958;19;20022;-59
2023/08/03 11:04:50;;;;;;;2.08;0.70;;;;;;;20.38;75.23;99551.47;7390241;19;20018;-59
2023/08/03 11:07:26;;;;;;;1.10;0.63;;;;;;;20.65;74.52;99561.22;7395585;19;20023;-60
2023/08/03 11:09:54;;;;;;;3.53;1.02;;;;;;;20.65;73.23;99555.84;7395924;19;20031;-59
2023/08/03 11:12:23;;;;;;;4.05;1.00;;;;;;;20.82;72.41;99558.09;7394116;19;20496;-60
2023/08/03 11:14:52;;;;;;;2.92;0.70;;;;;;;20.83;72.09;99559.75;7392511;19;20023;-60
2023/08/03 11:17:33;;;;;;;3.40;0.80;;;;;;;20.92;71.44;99566.59;7394240;19;20484;-60
2023/08/03 11:20:03;;;;;;;2.10;0.50;;;;;;;20.70;71.22;99565.97;7395448;19;20427;-60
2023/08/03 11:22:31;;;;;;;1.50;0.50;;;;;;;20.68;71.35;99563.50;7397475;19;20401;-60
2023/08/03 11:25:04;;;;;;;2.25;0.50;;;;;;;20.69;70.35;99573.22;7394304;19;20026;-60
2023/08/03 11:27:32;;;;;;;2.70;0.70;;;;;;;20.69;69.66;99572.41;7394458;19;20505;-61
2023/08/03 11:30:03;;;;;;;3.60;0.80;;;;;;;20.75;68.23;99578.81;7394917;19;20047;-60
2023/08/03 11:32:31;;;;;;;1.25;0.60;;;;;;;20.87;67.94;99585.19;7394457;19;20029;-60
2023/08/03 11:35:04;;;;;;;2.63;0.90;;;;;;;20.93;67.53;99581.69;7392337;19;20347;-59
2023/08/03 11:37:34;;;;;;;3.70;0.70;;;;;;;21.07;68.15;99579.81;7394708;19;20018;-59
2023/08/03 11:40:05;;;;;;;1.75;0.55;;;;;;;20.99;69.36;99588.13;7393679;19;20022;-60
2023/08/03 11:42:39;;;;;;;2.80;1.00;;;;;;;21.00;69.81;99592.44;7394383;19;20010;-60
2023/08/03 11:45:07;;;;;;;2.50;0.70;;;;;;;20.86;69.84;99597.00;7392881;19;20495;-60